createdAt,value
2023-01-04T00:03:03.942Z,101767.59
2023-01-04T00:08:05.642Z,101762.75
2023-01-04T00:13:07.190Z,101753.63
2023-01-04T00:18:08.730Z,101743.38
2023-01-04T00:23:10.281Z,101733.75
2023-01-04T00:28:11.963Z,101723.28
2023-01-04T00:33:13.547Z,101741.03
2023-01-04T00:38:15.102Z,101726.78
2023-01-04T00:43:16.657Z,101706.78
2023-01-04T00:48:18.192Z,101698.84
2023-01-04T00:53:19.759Z,101687.97
2023-01-04T00:58:21.295Z,101660.66
2023-01-04T01:03:22.979Z,101659.47
2023-01-04T01:08:24.616Z,101647.28
2023-01-04T01:13:26.176Z,101658.91
2023-01-04T01:18:29.454Z,101648.44
2023-01-04T01:23:31.057Z,101633.56
2023-01-04T01:28:34.878Z,101636.75
2023-01-04T01:33:41.085Z,101631.00
2023-01-04T01:38:43.392Z,101613.53
2023-01-04T01:43:51.218Z,101608.75
2023-01-04T01:49:12.951Z,101619.66
2023-01-04T01:54:20.935Z,101619.66
2023-01-04T01:59:22.845Z,101599.06
2023-01-04T02:04:24.732Z,101599.66
2023-01-04T02:09:26.280Z,101585.00
2023-01-04T02:14:28.563Z,101589.56
2023-01-04T02:20:00.464Z,101577.00
2023-01-04T02:25:17.157Z,101566.44
2023-01-04T02:30:38.612Z,101563.84
2023-01-04T02:35:54.277Z,101549.19
2023-01-04T02:41:05.625Z,101540.03
2023-01-04T02:46:35.726Z,101529.06
2023-01-04T02:51:38.683Z,101521.63
2023-01-04T02:56:46.289Z,101511.34
2023-01-04T03:02:10.654Z,101496.78
2023-01-04T03:07:30.535Z,101488.50
2023-01-04T03:12:38.545Z,101487.69
2023-01-04T03:17:46.668Z,101483.06
2023-01-04T03:23:10.110Z,101498.31
2023-01-04T03:28:15.042Z,101493.81
2023-01-04T03:33:18.047Z,101483.84
2023-01-04T03:38:28.240Z,101459.59
2023-01-04T03:43:40.995Z,101459.59
2023-01-04T03:48:53.065Z,101453.06
2023-01-04T03:53:57.067Z,101447.59
2023-01-04T03:58:59.682Z,101439.09
2023-01-04T04:04:01.387Z,101444.84
2023-01-04T04:09:03.815Z,101440.56
2023-01-04T04:14:06.136Z,101431.38
2023-01-04T04:19:09.065Z,101442.53
2023-01-04T04:24:20.412Z,101405.06
2023-01-04T04:29:24.209Z,101387.69
2023-01-04T04:34:25.800Z,101401.44
2023-01-04T04:39:27.318Z,101399.63
2023-01-04T04:44:28.935Z,101402.75
2023-01-04T04:49:30.547Z,101390.63
2023-01-04T04:54:32.105Z,101396.84
2023-01-04T04:59:33.696Z,101394.66
2023-01-04T05:04:35.216Z,101389.03
2023-01-04T05:09:36.791Z,101385.63
2023-01-04T05:14:38.541Z,101385.25
2023-01-04T05:19:40.088Z,101392.31
2023-01-04T05:24:41.699Z,101377.34
2023-01-04T05:29:43.297Z,101362.59
2023-01-04T05:34:44.934Z,101353.69
2023-01-04T05:39:46.464Z,101347.81
2023-01-04T05:44:48.002Z,101343.03
2023-01-04T05:49:49.783Z,101349.88
2023-01-04T05:54:51.334Z,101349.69
2023-01-04T05:59:53.080Z,101346.59
2023-01-04T06:04:58.801Z,101335.41
2023-01-04T06:10:01.408Z,101338.63
2023-01-04T06:15:03.287Z,101329.66
2023-01-04T06:20:07.202Z,101321.13
2023-01-04T06:25:09.511Z,101312.94
2023-01-04T06:30:11.505Z,101300.19
2023-01-04T06:35:13.054Z,101291.53
2023-01-04T06:40:14.804Z,101291.03
2023-01-04T06:45:16.427Z,101301.41
2023-01-04T06:50:18.018Z,101276.88
2023-01-04T06:55:19.688Z,101286.09
2023-01-04T07:00:21.841Z,101277.16
2023-01-04T07:05:23.959Z,101269.50
2023-01-04T07:10:25.558Z,101277.66
2023-01-04T07:15:38.980Z,101286.75
2023-01-04T07:20:41.853Z,101290.41
2023-01-04T07:25:43.454Z,101286.09
2023-01-04T07:30:45.020Z,101287.06
2023-01-04T07:35:46.602Z,101270.69
2023-01-04T07:40:55.945Z,101281.41
2023-01-04T07:45:58.611Z,101279.41
2023-01-04T07:51:00.565Z,101270.72
2023-01-04T07:56:02.136Z,101271.44
2023-01-04T08:01:14.557Z,101272.34
2023-01-04T08:06:16.960Z,101277.66
2023-01-04T08:11:20.397Z,101277.03
2023-01-04T08:16:24.677Z,101267.41
2023-01-04T08:21:27.720Z,101282.00
2023-01-04T08:26:29.940Z,101276.28
2023-01-04T08:31:33.288Z,101271.94
2023-01-04T08:36:36.855Z,101280.56
2023-01-04T08:41:57.393Z,101268.06
2023-01-04T08:47:00.765Z,101278.56
2023-01-04T08:52:02.468Z,101267.31
2023-01-04T08:57:04.235Z,101270.34
2023-01-04T09:02:19.608Z,101265.97
2023-01-04T09:07:21.212Z,101264.06
2023-01-04T09:12:23.546Z,101260.16
2023-01-04T09:17:25.220Z,101261.88
2023-01-04T09:22:26.946Z,101263.06
2023-01-04T09:27:31.279Z,101252.78
2023-01-04T09:32:32.907Z,101263.94
2023-01-04T09:37:34.474Z,101249.66
2023-01-04T09:42:44.182Z,101265.91
2023-01-04T09:47:54.814Z,101258.34
2023-01-04T09:53:07.326Z,101254.19
2023-01-04T09:58:35.388Z,101234.28
2023-01-04T10:03:39.772Z,101248.63
2023-01-04T10:08:44.696Z,101227.47
2023-01-04T10:14:06.534Z,101237.22
2023-01-04T10:19:36.790Z,101225.69
2023-01-04T10:25:08.096Z,101220.47
2023-01-04T10:30:18.492Z,101200.84
2023-01-04T10:35:25.353Z,101232.59
2023-01-04T10:40:29.251Z,101227.72
2023-01-04T10:46:04.708Z,101204.94
2023-01-04T10:51:10.320Z,101213.56
2023-01-04T10:56:25.915Z,101207.13
2023-01-04T11:01:53.436Z,101193.50
2023-01-04T11:07:06.458Z,101194.34
2023-01-04T11:12:13.027Z,101182.47
2023-01-04T11:17:14.772Z,101178.09
2023-01-04T11:22:36.990Z,101164.78
2023-01-04T11:27:49.598Z,101161.63
2023-01-04T11:33:00.632Z,101160.22
2023-01-04T11:38:11.388Z,101147.66
2023-01-04T11:43:21.159Z,101133.06
2023-01-04T11:48:43.731Z,101130.13
2023-01-04T11:53:46.026Z,101129.25
2023-01-04T11:59:11.090Z,101114.88
2023-01-04T12:04:21.469Z,101121.38
2023-01-04T12:09:23.061Z,101109.38
2023-01-04T12:14:24.585Z,101101.00
2023-01-04T12:19:26.855Z,101087.03
2023-01-04T12:24:33.879Z,101094.09
2023-01-04T12:29:43.099Z,101090.44
2023-01-04T12:34:46.996Z,101097.16
2023-01-04T12:39:48.537Z,101084.72
2023-01-04T12:44:50.027Z,101078.19
2023-01-04T12:49:57.521Z,101077.91
2023-01-04T12:55:01.370Z,101074.94
2023-01-04T13:00:13.949Z,101071.06
2023-01-04T13:05:54.962Z,101055.25
2023-01-04T13:10:43.145Z,101056.53
2023-01-04T13:16:03.466Z,101049.66
2023-01-04T13:21:25.851Z,101045.63
2023-01-04T13:26:42.035Z,101043.22
2023-01-04T13:32:03.151Z,101041.22
2023-01-04T13:37:12.635Z,101022.59
2023-01-04T13:42:25.669Z,101033.53
2023-01-04T13:47:29.455Z,101029.06
2023-01-04T13:52:55.210Z,101042.16
2023-01-04T13:58:01.375Z,101033.03
2023-01-04T14:03:15.029Z,101026.41
2023-01-04T14:08:36.864Z,101035.19
2023-01-04T14:13:38.545Z,101037.41
2023-01-04T14:18:40.164Z,101028.69
2023-01-04T14:23:41.864Z,101024.47
2023-01-04T14:28:49.512Z,101029.53
2023-01-04T14:34:07.606Z,101016.97
2023-01-04T14:39:12.522Z,101011.88
2023-01-04T14:44:22.267Z,101019.00
2023-01-04T14:49:24.118Z,101031.75
2023-01-04T14:54:27.202Z,101030.38
2023-01-04T14:59:28.913Z,101035.25
2023-01-04T15:04:30.703Z,101044.53
2023-01-04T15:09:32.437Z,101036.50
2023-01-04T15:14:34.017Z,101036.28
2023-01-04T15:19:38.052Z,101059.53
2023-01-04T15:24:40.056Z,101037.53
2023-01-04T15:29:41.663Z,101039.72
2023-01-04T15:34:46.822Z,101027.13
2023-01-04T15:39:48.726Z,101014.41
2023-01-04T15:44:50.315Z,101005.63
2023-01-04T15:49:51.896Z,100994.00
2023-01-04T15:54:53.596Z,101005.25
2023-01-04T15:59:55.182Z,101001.69
2023-01-04T16:04:56.883Z,101009.59
2023-01-04T16:09:58.568Z,100999.47
2023-01-04T16:15:00.179Z,101010.41
2023-01-04T16:20:02.271Z,101013.03
2023-01-04T16:25:12.524Z,101018.91
2023-01-04T16:30:14.799Z,101009.72
2023-01-04T16:35:16.618Z,100998.22
2023-01-04T16:40:18.278Z,100990.31
2023-01-04T16:45:19.798Z,100985.19
2023-01-04T16:50:21.329Z,100976.44
2023-01-04T16:55:24.189Z,100992.09
2023-01-04T17:00:26.054Z,100983.94
2023-01-04T17:05:27.610Z,100992.78
2023-01-04T17:10:29.861Z,101004.72
2023-01-04T17:15:42.856Z,101011.41
2023-01-04T17:20:52.448Z,101007.19
2023-01-04T17:25:55.350Z,101018.28
2023-01-04T17:30:57.228Z,101020.06
2023-01-04T17:36:05.696Z,101019.28
2023-01-04T17:41:13.010Z,101037.19
2023-01-04T17:46:22.607Z,101053.69
2023-01-04T17:51:25.191Z,101037.72
2023-01-04T17:56:28.503Z,101036.72
2023-01-04T18:01:30.782Z,101032.94
2023-01-04T18:06:35.104Z,101033.28
2023-01-04T18:11:36.865Z,101032.28
2023-01-04T18:16:38.533Z,101053.94
2023-01-04T18:21:40.188Z,101043.19
2023-01-04T18:27:10.822Z,101044.22
2023-01-04T18:32:03.647Z,101055.66
2023-01-04T18:37:05.299Z,101054.78
2023-01-04T18:42:06.892Z,101063.75
2023-01-04T18:47:08.584Z,101058.72
2023-01-04T18:52:10.245Z,101028.53
2023-01-04T18:57:15.459Z,101052.13
2023-01-04T19:02:20.649Z,101063.91
2023-01-04T19:07:22.556Z,101059.31
2023-01-04T19:12:24.106Z,101087.81
2023-01-04T19:17:25.697Z,101084.88
2023-01-04T19:22:27.492Z,101042.88
2023-01-04T19:27:29.054Z,101054.34
2023-01-04T19:32:33.668Z,101062.81
2023-01-04T19:37:35.605Z,101063.47
2023-01-04T19:42:37.376Z,101046.28
2023-01-04T19:47:39.179Z,101042.44
2023-01-04T19:52:40.697Z,101044.84
2023-01-04T19:57:42.385Z,101069.22
2023-01-04T20:02:44.316Z,101071.47
2023-01-04T20:07:46.003Z,101053.19
2023-01-04T20:12:47.547Z,101057.03
2023-01-04T20:17:49.068Z,101066.34
2023-01-04T20:22:50.600Z,101053.81
2023-01-04T20:27:52.173Z,101037.53
2023-01-04T20:32:53.770Z,101049.91
2023-01-04T20:37:55.529Z,101072.38
2023-01-04T20:42:57.136Z,101057.34
2023-01-04T20:47:58.888Z,101039.53
2023-01-04T20:53:00.495Z,101052.72
2023-01-04T20:58:02.069Z,101072.63
2023-01-04T21:03:05.628Z,101076.84
2023-01-04T21:08:10.827Z,101077.06
2023-01-04T21:13:12.822Z,101080.34
2023-01-04T21:18:14.570Z,101074.44
2023-01-04T21:23:21.419Z,101062.47
2023-01-04T21:28:23.034Z,101073.44
2023-01-04T21:33:24.573Z,101065.53
2023-01-04T21:38:26.103Z,101073.47
2023-01-04T21:43:27.617Z,101087.88
2023-01-04T21:48:29.156Z,101102.69
2023-01-04T21:53:32.631Z,101097.00
2023-01-04T21:58:34.595Z,101083.31
2023-01-04T22:03:36.151Z,101084.97
2023-01-04T22:08:39.722Z,101073.78
2023-01-04T22:13:41.648Z,101060.19
2023-01-04T22:18:50.229Z,101068.31
2023-01-04T22:23:51.936Z,101057.56
2023-01-04T22:28:53.471Z,101073.78
2023-01-04T22:33:55.194Z,101076.63
2023-01-04T22:38:57.425Z,101089.41
2023-01-04T22:44:01.362Z,101077.84
2023-01-04T22:49:03.446Z,101082.84
2023-01-04T22:54:05.044Z,101091.25
2023-01-04T22:59:06.576Z,101090.19
2023-01-04T23:04:08.147Z,101098.22
2023-01-04T23:09:13.184Z,101099.22
2023-01-04T23:14:16.984Z,101105.59
2023-01-04T23:19:18.526Z,101098.69
2023-01-04T23:24:20.325Z,101110.16
2023-01-04T23:29:21.884Z,101100.88
2023-01-04T23:34:23.413Z,101110.22
2023-01-04T23:39:25.012Z,101102.38
2023-01-04T23:44:29.278Z,101110.09
2023-01-04T23:49:32.830Z,101105.78
2023-01-04T23:54:34.777Z,101119.50
2023-01-04T23:59:36.674Z,101114.28
